Time,TemperatureF,DewpointF,PressureIn,WindDirection,WindDirectionDegrees,WindSpeedMPH,WindSpeedGustMPH,Humidity,HourlyPrecipIn,Conditions,Clouds,dailyrainin,SolarRadiationWatts/m^2,SoftwareType,DateUTC
2013-05-19 00:03:00,72.0,67.0,-100.00,SSE,152,4.0,7.0,84,0.00,,,0.00,0.000000,,2013-05-19 04:03:00,
2013-05-19 00:33:00,71.0,66.0,-100.00,South,179,3.0,6.0,85,0.00,,,0.00,0.000000,,2013-05-19 04:33:00,
2013-05-19 00:42:00,71.0,66.0,-100.00,South,179,3.0,6.0,85,0.00,,,0.00,0.000000,,2013-05-19 04:42:00,
2013-05-19 00:53:00,71.0,66.0,-100.00,South,179,3.0,6.0,85,0.00,,,0.00,0.000000,,2013-05-19 04:53:00,
2013-05-19 01:02:00,71.0,66.0,-100.00,South,179,3.0,6.0,85,0.00,,,0.00,0.000000,,2013-05-19 05:02:00,
2013-05-19 01:32:00,70.0,66.0,-100.00,SSW,208,1.0,4.0,88,0.00,,,0.00,0.000000,,2013-05-19 05:32:00,
2013-05-19 01:42:00,70.0,66.0,-100.00,SSW,208,1.0,4.0,88,0.00,,,0.00,0.000000,,2013-05-19 05:42:00,
2013-05-19 01:52:00,70.0,66.0,-100.00,SSW,208,1.0,4.0,88,0.00,,,0.00,0.000000,,2013-05-19 05:52:00,
2013-05-19 02:02:00,70.0,66.0,-100.00,SSW,208,1.0,4.0,88,0.00,,,0.00,0.000000,,2013-05-19 06:02:00,
2013-05-19 02:32:00,68.0,65.0,-100.00,NNW,347,1.0,3.0,91,0.00,,,0.00,0.000000,,2013-05-19 06:32:00,
2013-05-19 02:42:00,68.0,65.0,-100.00,NNW,347,1.0,3.0,91,0.00,,,0.00,0.000000,,2013-05-19 06:42:00,
2013-05-19 02:52:00,68.0,65.0,-100.00,NNW,347,1.0,3.0,91,0.00,,,0.00,0.000000,,2013-05-19 06:52:00,
2013-05-19 03:01:00,68.0,65.0,-100.00,NNW,347,1.0,3.0,91,0.00,,,0.00,0.000000,,2013-05-19 07:01:00,
2013-05-19 03:32:00,66.0,64.0,-100.00,NE,36,0.0,2.0,93,0.00,,,0.00,0.000000,,2013-05-19 07:32:00,
2013-05-19 03:42:00,66.0,64.0,-100.00,NE,36,0.0,2.0,93,0.00,,,0.00,0.000000,,2013-05-19 07:42:00,
2013-05-19 03:52:00,66.0,64.0,-100.00,NE,36,0.0,2.0,93,0.00,,,0.00,0.000000,,2013-05-19 07:52:00,
2013-05-19 04:02:00,66.0,64.0,-100.00,NE,36,0.0,2.0,93,0.00,,,0.00,0.000000,,2013-05-19 08:02:00,
2013-05-19 04:32:00,66.0,64.0,-100.00,East,80,1.0,3.0,94,0.00,,,0.00,0.000000,,2013-05-19 08:32:00,
2013-05-19 04:42:00,66.0,64.0,-100.00,East,80,1.0,3.0,94,0.00,,,0.00,0.000000,,2013-05-19 08:42:00,
2013-05-19 04:52:00,66.0,64.0,-100.00,East,80,1.0,3.0,94,0.00,,,0.00,0.000000,,2013-05-19 08:52:00,
2013-05-19 05:02:00,66.0,64.0,-100.00,East,80,1.0,3.0,94,0.00,,,0.00,0.000000,,2013-05-19 09:02:00,
2013-05-19 05:33:00,64.0,62.0,-100.00,ENE,63,0.0,2.0,94,0.00,,,0.00,0.000000,,2013-05-19 09:33:00,
2013-05-19 05:43:00,64.0,62.0,-100.00,ENE,63,0.0,2.0,94,0.00,,,0.00,0.000000,,2013-05-19 09:43:00,
2013-05-19 05:53:00,64.0,62.0,-100.00,ENE,63,0.0,2.0,94,0.00,,,0.00,0.000000,,2013-05-19 09:53:00,
2013-05-19 06:03:00,64.0,62.0,-100.00,ENE,63,0.0,2.0,94,0.00,,,0.00,0.000000,,2013-05-19 10:03:00,
2013-05-19 06:33:00,65.0,64.0,-100.00,East,92,1.0,4.0,95,0.00,,,0.00,0.000000,,2013-05-19 10:33:00,
2013-05-19 06:42:00,65.0,64.0,-100.00,East,92,1.0,4.0,95,0.00,,,0.00,0.000000,,2013-05-19 10:42:00,
2013-05-19 06:53:00,65.0,64.0,-100.00,East,92,1.0,4.0,95,0.00,,,0.00,0.000000,,2013-05-19 10:53:00,
2013-05-19 07:02:00,65.0,64.0,-100.00,East,92,1.0,4.0,95,0.00,,,0.00,0.000000,,2013-05-19 11:02:00,
2013-05-19 07:32:00,65.0,64.0,-100.00,NNW,336,2.0,3.0,95,0.00,,,-99.99,33.000000,,2013-05-19 11:32:00,
2013-05-19 07:42:00,65.0,64.0,-100.00,NNW,336,2.0,3.0,95,0.00,,,-99.99,33.000000,,2013-05-19 11:42:00,
2013-05-19 07:53:00,65.0,64.0,-100.00,NNW,336,2.0,3.0,95,0.00,,,-99.99,33.000000,,2013-05-19 11:53:00,
2013-05-19 08:01:00,65.0,64.0,-100.00,NNW,336,2.0,3.0,95,0.00,,,-99.99,33.000000,,2013-05-19 12:01:00,
2013-05-19 08:32:00,72.0,70.0,-100.00,SW,221,0.0,3.0,95,0.00,,,0.00,209.000000,,2013-05-19 12:32:00,
2013-05-19 08:42:00,72.0,70.0,-100.00,SW,221,0.0,3.0,95,0.00,,,0.00,209.000000,,2013-05-19 12:42:00,
2013-05-19 08:52:00,72.0,70.0,-100.00,SW,221,0.0,3.0,95,0.00,,,0.00,209.000000,,2013-05-19 12:52:00,
2013-05-19 09:01:00,72.0,70.0,-100.00,SW,221,0.0,3.0,95,0.00,,,0.00,209.000000,,2013-05-19 13:01:00,
2013-05-19 10:32:00,77.0,68.0,-100.00,South,178,4.0,8.0,73,-99.99,,,0.00,384.000000,,2013-05-19 14:32:00,
2013-05-19 10:42:00,77.0,68.0,-100.00,South,178,4.0,8.0,73,-99.99,,,0.00,384.000000,,2013-05-19 14:42:00,
2013-05-19 10:52:00,77.0,68.0,-100.00,South,178,4.0,8.0,73,-99.99,,,0.00,384.000000,,2013-05-19 14:52:00,
2013-05-19 11:02:00,77.0,68.0,-100.00,South,178,4.0,8.0,73,-99.99,,,0.00,384.000000,,2013-05-19 15:02:00,
2013-05-19 11:33:00,78.0,65.0,-100.00,SSW,198,7.0,15.0,65,0.00,,,0.00,848.000000,,2013-05-19 15:33:00,
2013-05-19 11:43:00,78.0,65.0,-100.00,SSW,198,7.0,15.0,65,0.00,,,0.00,848.000000,,2013-05-19 15:43:00,
2013-05-19 11:53:00,78.0,65.0,-100.00,SSW,198,7.0,15.0,65,0.00,,,0.00,848.000000,,2013-05-19 15:53:00,
2013-05-19 12:03:00,78.0,65.0,-100.00,SSW,198,7.0,15.0,65,0.00,,,0.00,848.000000,,2013-05-19 16:03:00,
2013-05-19 12:33:00,77.0,67.0,-100.00,SSE,151,8.0,14.0,71,0.00,,,0.00,623.000000,,2013-05-19 16:33:00,
2013-05-19 12:42:00,77.0,67.0,-100.00,SSE,151,8.0,14.0,71,0.00,,,0.00,623.000000,,2013-05-19 16:42:00,
2013-05-19 12:53:00,77.0,67.0,-100.00,SSE,151,8.0,14.0,71,0.00,,,0.00,623.000000,,2013-05-19 16:53:00,
2013-05-19 13:02:00,77.0,67.0,-100.00,SSE,151,8.0,14.0,71,0.00,,,0.00,623.000000,,2013-05-19 17:02:00,
2013-05-19 13:32:00,79.0,65.0,-100.00,South,185,7.0,12.0,63,0.00,,,0.00,868.000000,,2013-05-19 17:32:00,
2013-05-19 13:43:00,79.0,65.0,-100.00,South,185,7.0,12.0,63,0.00,,,0.00,868.000000,,2013-05-19 17:43:00,
2013-05-19 13:52:00,79.0,65.0,-100.00,South,185,7.0,12.0,63,0.00,,,0.00,868.000000,,2013-05-19 17:52:00,
2013-05-19 14:02:00,79.0,65.0,-100.00,South,185,7.0,12.0,63,0.00,,,0.00,868.000000,,2013-05-19 18:02:00,
2013-05-19 14:32:00,79.0,66.0,-100.00,SSW,194,8.0,14.0,64,0.00,,,0.00,914.000000,,2013-05-19 18:32:00,
2013-05-19 14:43:00,79.0,66.0,-100.00,SSW,194,8.0,14.0,64,0.00,,,0.00,914.000000,,2013-05-19 18:43:00,
2013-05-19 14:53:00,79.0,66.0,-100.00,SSW,194,8.0,14.0,64,0.00,,,0.00,914.000000,,2013-05-19 18:53:00,
2013-05-19 15:01:00,79.0,66.0,-100.00,SSW,194,8.0,14.0,64,0.00,,,0.00,914.000000,,2013-05-19 19:01:00,
2013-05-19 15:32:00,78.0,66.0,-100.00,South,189,10.0,16.0,67,0.00,,,0.00,905.000000,,2013-05-19 19:32:00,
2013-05-19 15:42:00,78.0,66.0,-100.00,South,189,10.0,16.0,67,0.00,,,0.00,905.000000,,2013-05-19 19:42:00,
2013-05-19 15:52:00,78.0,66.0,-100.00,South,189,10.0,16.0,67,0.00,,,0.00,905.000000,,2013-05-19 19:52:00,
2013-05-19 16:02:00,78.0,66.0,-100.00,South,189,10.0,16.0,67,0.00,,,0.00,905.000000,,2013-05-19 20:02:00,
2013-05-19 16:32:00,79.0,65.0,-100.00,South,170,8.0,16.0,63,0.00,,,0.00,973.000000,,2013-05-19 20:32:00,
2013-05-19 16:42:00,79.0,65.0,-100.00,South,170,8.0,16.0,63,0.00,,,0.00,973.000000,,2013-05-19 20:42:00,
2013-05-19 16:52:00,79.0,65.0,-100.00,South,170,8.0,16.0,63,0.00,,,0.00,973.000000,,2013-05-19 20:52:00,
2013-05-19 17:02:00,79.0,65.0,-100.00,South,170,8.0,16.0,63,0.00,,,0.00,973.000000,,2013-05-19 21:02:00,
2013-05-19 17:32:00,77.0,65.0,-100.00,South,188,9.0,15.0,67,0.00,,,0.00,475.000000,,2013-05-19 21:32:00,
2013-05-19 17:43:00,77.0,65.0,-100.00,South,188,9.0,15.0,67,0.00,,,0.00,475.000000,,2013-05-19 21:43:00,
2013-05-19 17:53:00,77.0,65.0,-100.00,South,188,9.0,15.0,67,0.00,,,0.00,475.000000,,2013-05-19 21:53:00,
2013-05-19 18:03:00,77.0,65.0,-100.00,South,188,9.0,15.0,67,0.00,,,0.00,475.000000,,2013-05-19 22:03:00,
2013-05-19 18:33:00,76.0,66.0,-100.00,South,177,7.0,15.0,71,0.00,,,0.00,297.000000,,2013-05-19 22:33:00,
2013-05-19 18:43:00,76.0,66.0,-100.00,South,177,7.0,15.0,71,0.00,,,0.00,297.000000,,2013-05-19 22:43:00,
2013-05-19 18:53:00,76.0,66.0,-100.00,South,177,7.0,15.0,71,0.00,,,0.00,297.000000,,2013-05-19 22:53:00,
2013-05-19 19:03:00,76.0,66.0,-100.00,South,177,7.0,15.0,71,0.00,,,0.00,297.000000,,2013-05-19 23:03:00,
2013-05-19 19:32:00,74.0,66.0,-100.00,South,182,5.0,11.0,75,0.00,,,0.00,115.000000,,2013-05-19 23:32:00,
2013-05-19 19:42:00,74.0,66.0,-100.00,South,182,5.0,11.0,75,0.00,,,0.00,115.000000,,2013-05-19 23:42:00,
2013-05-19 19:52:00,74.0,66.0,-100.00,South,182,5.0,11.0,75,0.00,,,0.00,115.000000,,2013-05-19 23:52:00,
2013-05-19 20:02:00,74.0,66.0,-100.00,South,182,5.0,11.0,75,0.00,,,0.00,115.000000,,2013-05-20 00:02:00,
2013-05-19 20:32:00,72.0,65.0,-100.00,South,169,2.0,8.0,80,0.00,,,-99.99,38.000000,,2013-05-20 00:32:00,
2013-05-19 20:42:00,72.0,65.0,-100.00,South,169,2.0,8.0,80,0.00,,,-99.99,38.000000,,2013-05-20 00:42:00,
2013-05-19 20:52:00,72.0,65.0,-100.00,South,169,2.0,8.0,80,0.00,,,-99.99,38.000000,,2013-05-20 00:52:00,
2013-05-19 21:01:00,72.0,65.0,-100.00,South,169,2.0,8.0,80,0.00,,,-99.99,38.000000,,2013-05-20 01:01:00,
2013-05-19 21:32:00,71.0,66.0,-100.00,SE,146,3.0,8.0,85,0.00,,,0.00,0.000000,,2013-05-20 01:32:00,
2013-05-19 21:42:00,71.0,66.0,-100.00,SE,146,3.0,8.0,85,0.00,,,0.00,0.000000,,2013-05-20 01:42:00,
2013-05-19 21:52:00,71.0,66.0,-100.00,SE,146,3.0,8.0,85,0.00,,,0.00,0.000000,,2013-05-20 01:52:00,
2013-05-19 22:02:00,71.0,66.0,-100.00,SE,146,3.0,8.0,85,0.00,,,0.00,0.000000,,2013-05-20 02:02:00,
2013-05-19 22:32:00,71.0,67.0,-100.00,South,177,7.0,18.0,87,0.00,,,0.00,0.000000,,2013-05-20 02:32:00,
2013-05-19 22:42:00,71.0,67.0,-100.00,South,177,7.0,18.0,87,0.00,,,0.00,0.000000,,2013-05-20 02:42:00,
2013-05-19 22:52:00,71.0,67.0,-100.00,South,177,7.0,18.0,87,0.00,,,0.00,0.000000,,2013-05-20 02:52:00,
2013-05-19 23:02:00,71.0,67.0,-100.00,South,177,7.0,18.0,87,0.00,,,0.00,0.000000,,2013-05-20 03:02:00,
2013-05-19 23:33:00,71.0,67.0,-100.00,SSE,162,7.0,13.0,87,0.00,,,0.00,0.000000,,2013-05-20 03:33:00,
2013-05-19 23:43:00,71.0,67.0,-100.00,SSE,162,7.0,13.0,87,0.00,,,0.00,0.000000,,2013-05-20 03:43:00,
2013-05-19 23:53:00,71.0,67.0,-100.00,SSE,162,7.0,13.0,87,0.00,,,0.00,0.000000,,2013-05-20 03:53:00,